Time;durP1;ratioP1;P1;durP2;ratioP2;P2;SDS_P1;SDS_P2;PMS_P1;PMS_P2;Temp;Humidity;BMP_temperature;BMP_pressure;BME280_temperature;BME280_humidity;BME280_pressure;Samples;Min_cycle;Max_cycle;Signal;HPM_P1;HPM_P2
2021/12/24 00:01:03;;;;;;;38.20;17.23;;;-1.30;99.90;;;;;;4965262;28;20095;-80
2021/12/24 00:03:29;;;;;;;39.60;21.75;;;-1.40;99.90;;;;;;4980516;28;20471;-80
2021/12/24 00:05:54;;;;;;;;;;;-1.30;99.90;;;;;;4965633;29;20023;-80
2021/12/24 00:08:20;;;;;;;41.40;20.48;;;-1.30;99.90;;;;;;4964460;28;20262;-79
2021/12/24 00:10:49;;;;;;;;;;;-1.40;99.90;;;;;;4981199;28;20214;-79
2021/12/24 00:13:16;;;;;;;41.53;21.45;;;-1.40;99.90;;;;;;4964735;29;20383;-80
2021/12/24 00:37:10;;;;;;;41.60;23.73;;;-1.50;99.90;;;;;;4964103;29;20393;-80
2021/12/24 00:39:42;;;;;;;;;;;-1.50;99.90;;;;;;4962677;28;20024;-80
2021/12/24 00:42:09;;;;;;;41.28;21.55;;;-1.50;99.90;;;;;;4978545;28;19906;-80
2021/12/24 00:44:34;;;;;;;41.28;20.60;;;-1.50;99.90;;;;;;4979177;28;20027;-80
2021/12/24 00:47:01;;;;;;;;;;;-1.50;99.90;;;;;;4962854;28;20027;-79
2021/12/24 00:49:27;;;;;;;37.67;19.33;;;-1.40;99.90;;;;;;4965385;28;19938;-79
2021/12/24 00:52:07;;;;;;;;;;;-1.40;99.90;;;;;;4963832;29;20043;-79
2021/12/24 00:57:20;;;;;;;34.47;18.85;;;-1.40;99.90;;;;;;4965630;29;20058;-80
2021/12/24 00:59:46;;;;;;;;;;;-1.40;99.90;;;;;;4980633;28;20027;-80
2021/12/24 01:02:12;;;;;;;42.45;21.77;;;-1.40;99.90;;;;;;4981566;28;19914;-80
2021/12/24 01:04:37;;;;;;;;;;;-1.40;99.90;;;;;;4965742;28;20031;-80
2021/12/24 01:07:03;;;;;;;46.17;21.55;;;-1.40;99.90;;;;;;4966066;29;19914;-79
2021/12/24 01:09:29;;;;;;;;;;;-1.40;99.90;;;;;;4965694;29;20034;-79
2021/12/24 01:11:54;;;;;;;38.35;20.65;;;-1.40;99.90;;;;;;4965160;28;19919;-80
2021/12/24 01:14:21;;;;;;;;;;;-1.40;99.90;;;;;;4965054;28;20027;-80
2021/12/24 01:17:02;;;;;;;41.00;20.73;;;-1.40;99.90;;;;;;4964726;28;20241;-80
2021/12/24 01:19:28;;;;;;;41.30;20.98;;;-1.40;99.90;;;;;;4964321;29;20035;-80
2021/12/24 01:24:44;;;;;;;37.25;19.65;;;-1.40;99.90;;;;;;4965245;29;19906;-79
2021/12/24 01:41:02;;;;;;;39.55;21.70;;;-1.40;99.90;;;;;;4906210;29;20040;-79
2021/12/24 01:43:24;;;;;;;42.47;22.50;;;-1.30;99.90;;;;;;4959687;28;20035;-80
2021/12/24 01:45:54;;;;;;;40.22;21.77;;;-1.40;99.90;;;;;;4962125;28;20045;-80
2021/12/24 01:48:20;;;;;;;39.35;21.58;;;-1.30;99.90;;;;;;4963287;28;20398;-80
2021/12/24 01:50:47;;;;;;;42.72;23.05;;;-1.30;99.90;;;;;;4964451;29;20087;-80
2021/12/24 01:53:16;;;;;;;41.90;22.67;;;-1.30;99.90;;;;;;4962962;29;20027;-79
2021/12/24 01:55:44;;;;;;;40.80;21.98;;;-1.40;99.90;;;;;;4963575;28;20528;-79
2021/12/24 01:58:10;;;;;;;35.00;19.88;;;-1.30;99.90;;;;;;4963539;29;20055;-80
2021/12/24 02:00:44;;;;;;;40.17;22.20;;;-1.30;99.90;;;;;;4962771;28;20039;-80
2021/12/24 02:03:12;;;;;;;39.67;22.77;;;-1.30;99.90;;;;;;4963795;28;20027;-80
2021/12/24 02:05:38;;;;;;;50.78;25.80;;;-1.30;99.90;;;;;;4964496;28;20131;-81
2021/12/24 02:08:04;;;;;;;45.75;24.08;;;-1.30;99.90;;;;;;4963101;29;20023;-80
2021/12/24 02:10:30;;;;;;;47.80;25.90;;;-1.40;99.90;;;;;;4960988;28;20126;-80
2021/12/24 02:12:56;;;;;;;;;;;-1.40;99.90;;;;;;4963109;28;20086;-81
2021/12/24 02:28:40;;;;;;;47.83;25.15;;;-1.50;99.90;;;;;;4962975;29;20027;-80
2021/12/24 02:31:16;;;;;;;48.60;24.27;;;-1.50;99.90;;;;;;4962208;29;20051;-80
2021/12/24 02:33:43;;;;;;;49.10;24.35;;;-1.50;99.90;;;;;;4977419;28;20059;-80
2021/12/24 02:36:09;;;;;;;54.20;33.05;;;-1.50;99.90;;;;;;4962231;29;20504;-80
2021/12/24 02:38:35;;;;;;;;;;;-1.50;99.90;;;;;;4979198;28;20078;-80
2021/12/24 02:41:02;;;;;;;45.80;25.30;;;-1.50;99.90;;;;;;4978395;28;19915;-81
2021/12/24 02:43:28;;;;;;;44.05;24.92;;;-1.50;99.90;;;;;;4978459;28;20086;-79
2021/12/24 02:45:57;;;;;;;;;;;-1.50;99.90;;;;;;4963078;28;20062;-79
2021/12/24 02:56:23;;;;;;;50.83;26.73;;;-1.30;99.90;;;;;;4962870;29;20054;-80
2021/12/24 02:58:49;;;;;;;48.28;27.83;;;-1.30;99.90;;;;;;4960659;28;20027;-80
2021/12/24 03:01:19;;;;;;;51.40;27.20;;;-1.30;99.90;;;;;;4962392;29;20027;-79
2021/12/24 03:03:48;;;;;;;54.47;28.80;;;-1.40;99.90;;;;;;4959562;29;20031;-80
2021/12/24 03:06:18;;;;;;;53.60;25.88;;;-1.40;99.90;;;;;;4961254;28;20110;-79
2021/12/24 03:08:44;;;;;;;45.45;25.48;;;-1.40;99.90;;;;;;4961260;29;20019;-80
2021/12/24 03:11:09;;;;;;;;;;;-1.40;99.90;;;;;;4976780;28;20511;-80
2021/12/24 03:13:36;;;;;;;48.05;23.40;;;-1.40;99.90;;;;;;4977439;28;19913;-80
2021/12/24 03:16:03;;;;;;;43.40;21.60;;;-1.40;99.90;;;;;;4961005;28;20038;-79
2021/12/24 03:18:31;;;;;;;40.67;23.08;;;-1.50;99.90;;;;;;4962656;29;20492;-80
2021/12/24 03:21:17;;;;;;;38.92;22.42;;;-1.50;99.90;;;;;;4962170;28;20042;-80
2021/12/24 03:24:33;;;;;;;38.10;20.13;;;-1.60;99.90;;;;;;4965716;29;20023;-80
2021/12/24 03:26:39;;;;;;;42.67;22.73;;;-1.60;99.90;;;;;;4964355;28;20114;-80
2021/12/24 03:29:06;;;;;;;43.78;23.40;;;-1.60;99.90;;;;;;4963111;28;20035;-80
2021/12/24 03:31:33;;;;;;;45.85;21.85;;;-1.60;99.90;;;;;;4962829;28;20051;-79
2021/12/24 03:33:59;;;;;;;43.83;24.15;;;-1.60;99.90;;;;;;4962172;29;20034;-80
2021/12/24 03:36:29;;;;;;;45.47;22.42;;;-1.60;99.90;;;;;;4963805;28;20090;-79
2021/12/24 03:38:55;;;;;;;43.63;23.23;;;-1.50;99.90;;;;;;4963583;29;20035;-80
2021/12/24 03:41:22;;;;;;;44.72;25.45;;;-1.50;99.90;;;;;;4963308;28;20058;-81
2021/12/24 03:43:47;;;;;;;47.47;26.55;;;-1.60;99.90;;;;;;4963899;28;20023;-80
2021/12/24 03:46:17;;;;;;;;;;;-1.60;99.90;;;;;;4963145;29;20500;-80
2021/12/24 03:48:54;;;;;;;49.35;26.88;;;-1.70;99.90;;;;;;4978211;28;19934;-80
2021/12/24 03:51:33;;;;;;;49.88;26.30;;;-1.60;99.90;;;;;;4962921;28;20059;-80
2021/12/24 03:56:44;;;;;;;49.42;26.80;;;-1.60;99.90;;;;;;4963778;29;20035;-79
2021/12/24 03:59:10;;;;;;;;;;;-1.50;99.90;;;;;;4962780;28;20027;-80
2021/12/24 04:01:37;;;;;;;49.95;26.27;;;-1.50;99.90;;;;;;4979276;28;19906;-80
2021/12/24 04:04:04;;;;;;;52.47;27.58;;;-1.50;99.90;;;;;;4961577;29;20031;-79
2021/12/24 04:06:31;;;;;;;49.40;26.98;;;-1.40;99.90;;;;;;4963700;28;20082;-80
2021/12/24 04:08:57;;;;;;;52.45;29.23;;;-1.40;99.90;;;;;;4961943;29;20023;-80
2021/12/24 04:11:22;;;;;;;;;;;-1.40;99.90;;;;;;4978219;28;20038;-79
2021/12/24 04:13:48;;;;;;;47.25;25.73;;;-1.30;99.90;;;;;;4962862;29;19915;-80
2021/12/24 04:16:14;;;;;;;;;;;-1.40;99.90;;;;;;4961630;28;20023;-80
2021/12/24 04:19:21;;;;;;;52.05;29.10;;;-1.30;99.90;;;;;;4963230;29;20005;-80
2021/12/24 04:26:54;;;;;;;48.80;28.27;;;-1.40;99.90;;;;;;4962377;29;20038;-80
2021/12/24 04:29:20;;;;;;;;;;;-1.30;99.90;;;;;;4963446;28;20087;-80
2021/12/24 04:31:55;;;;;;;44.50;25.50;;;-1.30;99.90;;;;;;4961718;28;20019;-80
2021/12/24 04:34:26;;;;;;;46.25;27.25;;;-1.40;99.90;;;;;;4962954;28;20041;-80
2021/12/24 04:39:51;;;;;;;51.10;29.45;;;-1.40;99.90;;;;;;4966752;28;20046;-80
2021/12/24 05:03:54;;;;;;;51.92;28.88;;;-1.20;99.90;;;;;;4966695;29;20038;-80
2021/12/24 05:08:54;;;;;;;51.63;29.15;;;-1.20;99.90;;;;;;4967970;28;20347;-80
2021/12/24 05:11:39;;;;;;;54.50;26.38;;;-1.20;99.90;;;;;;4966076;29;20028;-80
2021/12/24 05:14:05;;;;;;;50.80;27.75;;;-1.20;99.90;;;;;;4964922;29;20042;-80
2021/12/24 05:16:42;;;;;;;50.70;28.17;;;-1.10;99.90;;;;;;4980192;28;20031;-81
2021/12/24 05:21:37;;;;;;;50.15;28.90;;;-1.20;99.90;;;;;;4965375;29;20063;-80
2021/12/24 05:24:15;;;;;;;48.35;28.50;;;-1.10;99.90;;;;;;4982518;28;20440;-80
2021/12/24 05:26:45;;;;;;;51.50;28.60;;;-1.10;99.90;;;;;;4967015;28;20059;-80
2021/12/24 05:29:13;;;;;;;50.15;27.60;;;-1.10;99.90;;;;;;4966749;28;20019;-81
2021/12/24 05:31:39;;;;;;;52.75;28.92;;;-1.10;99.90;;;;;;4965472;28;20049;-80
2021/12/24 05:34:04;;;;;;;;;;;-1.10;99.90;;;;;;4966483;29;20102;-80
2021/12/24 05:36:31;;;;;;;51.47;28.85;;;-1.00;99.90;;;;;;4983781;28;19911;-79
2021/12/24 05:38:56;;;;;;;;;;;-1.10;99.90;;;;;;4967440;28;20027;-79
2021/12/24 05:41:23;;;;;;;48.13;27.67;;;-1.10;99.90;;;;;;4976028;28;19957;-80
2021/12/24 05:43:50;;;;;;;51.30;29.23;;;-1.10;99.90;;;;;;4967987;28;20588;-80
2021/12/24 05:46:16;;;;;;;48.55;28.42;;;-1.10;99.90;;;;;;4964255;28;20431;-79
2021/12/24 05:48:41;;;;;;;;;;;-1.10;99.90;;;;;;4964846;28;20400;-80
2021/12/24 05:51:08;;;;;;;49.60;28.83;;;-1.10;99.90;;;;;;4983628;28;20351;-80
2021/12/24 05:53:34;;;;;;;49.47;28.65;;;-1.10;99.90;;;;;;4969241;28;20039;-80
2021/12/24 05:55:59;;;;;;;;;;;-1.20;99.90;;;;;;4966273;29;20081;-80
2021/12/24 05:58:25;;;;;;;52.70;28.42;;;-1.20;99.90;;;;;;4967003;28;19997;-80
2021/12/24 06:00:51;;;;;;;;;;;-1.20;99.90;;;;;;4963598;29;20031;-80
2021/12/24 06:03:17;;;;;;;52.42;29.35;;;-1.20;99.90;;;;;;4977472;28;19906;-80
2021/12/24 06:05:44;;;;;;;59.65;31.45;;;-1.20;99.90;;;;;;4960044;29;20489;-79
2021/12/24 06:08:10;;;;;;;52.83;30.30;;;-1.20;99.90;;;;;;4964890;28;20039;-80
2021/12/24 06:10:36;;;;;;;50.47;29.77;;;-1.30;99.90;;;;;;4965534;28;20160;-79
2021/12/24 06:13:04;;;;;;;54.03;30.13;;;-1.20;99.90;;;;;;4959735;29;20078;-79
2021/12/24 06:15:33;;;;;;;53.42;30.48;;;-1.30;99.90;;;;;;4962899;29;20016;-79
2021/12/24 06:17:59;;;;;;;51.13;30.33;;;-1.30;99.90;;;;;;4962887;28;20062;-80
2021/12/24 06:20:26;;;;;;;55.75;29.38;;;-1.30;99.90;;;;;;4962614;28;20029;-80
2021/12/24 06:22:53;;;;;;;65.35;33.72;;;-1.30;99.90;;;;;;4964035;28;20031;-80
2021/12/24 06:25:19;;;;;;;59.88;35.05;;;-1.30;99.90;;;;;;4964218;29;20114;-79
2021/12/24 06:27:48;;;;;;;60.40;33.92;;;-1.30;99.90;;;;;;4964011;28;20076;-80
2021/12/24 06:30:14;;;;;;;58.17;32.72;;;-1.30;99.90;;;;;;4968991;29;20020;-80
2021/12/24 06:32:40;;;;;;;58.10;32.83;;;-1.30;99.90;;;;;;4969976;29;20035;-80
2021/12/24 06:35:09;;;;;;;65.38;34.88;;;-1.30;99.90;;;;;;4963153;28;20031;-80
2021/12/24 06:37:36;;;;;;;60.15;33.65;;;-1.20;99.90;;;;;;4963048;28;20042;-79
2021/12/24 06:40:02;;;;;;;60.20;33.20;;;-1.30;99.90;;;;;;4962197;28;20019;-78
2021/12/24 06:42:28;;;;;;;64.85;34.53;;;-1.30;99.90;;;;;;4978745;28;20055;-80
2021/12/24 06:44:54;;;;;;;;;;;-1.20;99.90;;;;;;4978962;28;20488;-80
2021/12/24 06:47:19;;;;;;;69.15;35.63;;;-1.20;99.90;;;;;;4979140;28;19917;-80
2021/12/24 06:49:45;;;;;;;;;;;-1.20;99.90;;;;;;4960446;28;20090;-79
2021/12/24 06:52:11;;;;;;;59.88;34.15;;;-1.20;99.90;;;;;;4969763;28;20092;-80
2021/12/24 06:54:36;;;;;;;;;;;-1.10;99.90;;;;;;4959653;28;20061;-80
2021/12/24 06:57:03;;;;;;;79.65;39.83;;;-1.10;99.90;;;;;;4957486;28;19917;-80
2021/12/24 06:59:29;;;;;;;68.28;37.45;;;-1.10;99.90;;;;;;4953909;28;20062;-77
2021/12/24 07:01:59;;;;;;;;;;;-1.00;99.90;;;;;;4958749;29;20511;-77
2021/12/24 07:04:25;;;;;;;72.72;39.78;;;-1.00;99.90;;;;;;4972817;28;19910;-77
2021/12/24 07:06:50;;;;;;;65.38;37.92;;;-0.90;99.90;;;;;;4957498;28;20150;-78
2021/12/24 07:09:16;;;;;;;;;;;-0.90;99.90;;;;;;4956683;29;20496;-78
2021/12/24 07:11:42;;;;;;;58.47;33.30;;;-0.80;99.90;;;;;;4970251;28;19914;-78
2021/12/24 07:14:08;;;;;;;63.58;36.95;;;-0.80;99.90;;;;;;4956278;29;20027;-78
2021/12/24 07:16:34;;;;;;;;;;;-0.80;99.90;;;;;;4960002;28;20028;-79
2021/12/24 07:19:00;;;;;;;63.67;35.40;;;-0.80;99.90;;;;;;4960906;29;19910;-79
2021/12/24 07:21:26;;;;;;;;;;;-0.80;99.90;;;;;;4958783;29;20038;-78
2021/12/24 07:23:52;;;;;;;68.22;35.88;;;-0.70;99.90;;;;;;4958346;29;19907;-77
2021/12/24 07:26:17;;;;;;;;;;;-0.70;99.90;;;;;;4970816;28;20133;-77
2021/12/24 07:28:43;;;;;;;80.75;40.83;;;-0.70;99.90;;;;;;4971058;28;20283;-78
2021/12/24 07:31:08;;;;;;;;;;;-0.70;99.90;;;;;;4956899;29;20042;-78
2021/12/24 07:33:34;;;;;;;66.47;37.83;;;-0.60;99.90;;;;;;4975755;28;19943;-78
2021/12/24 07:36:00;;;;;;;;;;;-0.60;99.90;;;;;;4966826;28;20545;-79
2021/12/24 07:38:25;;;;;;;68.82;36.55;;;-0.60;99.90;;;;;;4967630;29;19934;-79
2021/12/24 07:40:51;;;;;;;;;;;-0.60;99.90;;;;;;4983037;28;20390;-79
2021/12/24 07:43:17;;;;;;;72.25;39.85;;;-0.40;99.90;;;;;;4966332;28;19910;-78
2021/12/24 07:45:44;;;;;;;;;;;-0.40;99.90;;;;;;4961861;29;20412;-77
2021/12/24 07:48:15;;;;;;;66.72;37.92;;;-0.30;99.90;;;;;;4958289;29;19910;-78
2021/12/24 07:53:12;;;;;;;66.82;37.95;;;-0.30;99.90;;;;;;4954514;29;20575;-78
2021/12/24 07:55:39;;;;;;;65.43;35.75;;;-0.20;99.90;;;;;;4968687;28;20540;-79
2021/12/24 07:58:06;;;;;;;64.97;37.92;;;-0.20;99.90;;;;;;4956907;28;20035;-78
2021/12/24 08:00:33;;;;;;;64.65;38.65;;;-0.20;99.90;;;;;;4960076;29;20087;-78
2021/12/24 08:03:01;;;;;;;58.15;35.75;;;-0.20;99.90;;;;;;4961801;28;20037;-78
2021/12/24 08:05:26;;;;;;;63.55;37.92;;;-0.20;99.90;;;;;;4959519;29;20480;-78
2021/12/24 08:07:53;;;;;;;;;;;-0.20;99.90;;;;;;4960224;28;20031;-79
2021/12/24 08:10:20;;;;;;;62.23;35.20;;;-0.20;99.90;;;;;;4976056;28;19994;-78
2021/12/24 08:12:46;;;;;;;59.83;35.95;;;-0.20;99.90;;;;;;4962098;28;20083;-78
2021/12/24 08:15:11;;;;;;;63.22;37.72;;;-0.20;99.90;;;;;;4962241;28;20087;-78
2021/12/24 08:17:37;;;;;;;;;;;-0.20;99.90;;;;;;4962119;29;20420;-77
2021/12/24 08:20:05;;;;;;;74.40;41.17;;;-0.20;99.90;;;;;;4956956;29;20374;-77
2021/12/24 08:22:31;;;;;;;82.88;46.88;;;-0.20;99.90;;;;;;4957398;28;20034;-78
2021/12/24 08:24:57;;;;;;;;;;;-0.20;99.90;;;;;;4957326;28;20106;-80
2021/12/24 08:27:22;;;;;;;87.55;43.92;;;-0.10;99.90;;;;;;4958521;29;19910;-78
2021/12/24 08:29:48;;;;;;;;;;;-0.10;99.90;;;;;;4957798;29;20361;-77
2021/12/24 08:32:14;;;;;;;105.40;56.65;;;-0.10;99.90;;;;;;4956681;28;20567;-77
2021/12/24 08:34:39;;;;;;;90.88;48.05;;;-0.10;99.90;;;;;;4955125;28;20027;-77
2021/12/24 08:37:05;;;;;;;;;;;0.10;99.90;;;;;;4973944;28;20416;-77
2021/12/24 08:39:31;;;;;;;83.85;47.28;;;0.10;99.90;;;;;;4971656;28;19988;-76
2021/12/24 08:41:57;;;;;;;86.60;48.78;;;0.30;99.90;;;;;;4971778;28;20558;-77
2021/12/24 08:44:24;;;;;;;;;;;0.30;99.90;;;;;;4956669;28;20114;-77
2021/12/24 08:46:50;;;;;;;93.22;51.33;;;0.30;99.90;;;;;;4956618;29;19906;-77
2021/12/24 08:49:15;;;;;;;;;;;0.30;99.90;;;;;;4956434;28;20023;-78
2021/12/24 08:51:41;;;;;;;229.98;93.60;;;0.20;99.90;;;;;;4955646;28;19914;-78
2021/12/24 08:54:07;;;;;;;;;;;0.30;99.90;;;;;;4956645;28;20063;-77
2021/12/24 08:56:32;;;;;;;319.35;157.18;;;0.40;99.90;;;;;;4972594;28;19910;-77
2021/12/24 08:58:58;;;;;;;;;;;0.50;99.90;;;;;;4958062;28;20066;-77
2021/12/24 09:01:24;;;;;;;86.22;48.45;;;0.50;99.90;;;;;;4971422;28;20143;-77
2021/12/24 09:03:49;;;;;;;;;;;0.60;99.90;;;;;;4972019;28;20039;-77
2021/12/24 09:06:15;;;;;;;100.63;53.45;;;0.70;99.90;;;;;;4956658;29;19910;-77
2021/12/24 09:08:44;;;;;;;;;;;0.70;99.90;;;;;;4958252;29;20502;-77
2021/12/24 09:11:11;;;;;;;88.25;47.33;;;0.70;99.90;;;;;;4956964;28;19918;-77
2021/12/24 09:13:37;;;;;;;118.18;73.50;;;0.80;99.90;;;;;;4956470;28;20028;-78
2021/12/24 09:16:03;;;;;;;194.35;111.68;;;0.90;99.90;;;;;;4958882;28;20035;-77
2021/12/24 09:18:28;;;;;;;;;;;0.90;99.90;;;;;;4957703;28;20110;-77
2021/12/24 09:20:59;;;;;;;87.10;50.47;;;1.00;99.90;;;;;;4972680;28;19957;-77
2021/12/24 09:23:25;;;;;;;85.80;49.70;;;1.00;99.90;;;;;;4969136;28;20358;-78
2021/12/24 09:25:50;;;;;;;;;;;1.20;99.90;;;;;;4953899;29;20519;-78
2021/12/24 09:28:16;;;;;;;75.07;43.88;;;1.30;99.90;;;;;;4968578;28;20367;-77
2021/12/24 09:30:42;;;;;;;;;;;1.40;99.90;;;;;;4956557;28;20054;-78
2021/12/24 09:33:08;;;;;;;73.78;43.05;;;1.50;99.90;;;;;;4954241;29;20248;-77
2021/12/24 09:35:34;;;;;;;77.57;45.60;;;1.60;99.90;;;;;;4956483;28;20560;-76
2021/12/24 09:38:00;;;;;;;76.20;44.17;;;1.70;99.90;;;;;;4954432;29;20039;-79
2021/12/24 09:40:26;;;;;;;68.65;41.08;;;1.90;99.90;;;;;;4970119;28;20583;-78
2021/12/24 09:42:52;;;;;;;70.18;39.60;;;2.00;99.90;;;;;;4956761;28;20038;-78
2021/12/24 09:45:18;;;;;;;;;;;2.20;99.90;;;;;;4959734;28;20031;-79
2021/12/24 09:47:44;;;;;;;60.55;34.45;;;2.30;99.90;;;;;;4975019;28;19907;-78
2021/12/24 09:50:14;;;;;;;62.28;35.67;;;2.40;99.90;;;;;;4961235;28;20039;-78
2021/12/24 09:52:41;;;;;;;49.60;31.70;;;2.50;99.90;;;;;;4957887;29;20650;-78
2021/12/24 09:55:14;;;;;;;49.63;30.55;;;2.80;99.90;;;;;;4955910;29;20110;-77
2021/12/24 09:57:42;;;;;;;49.60;29.77;;;2.90;99.90;;;;;;4956138;29;20114;-78
2021/12/24 10:00:09;;;;;;;48.58;29.73;;;2.90;99.90;;;;;;4954724;29;20461;-78
2021/12/24 10:02:43;;;;;;;49.70;31.40;;;3.00;99.90;;;;;;4954589;28;20522;-79
2021/12/24 10:05:32;;;;;;;45.88;29.27;;;3.00;99.90;;;;;;4954955;28;20114;-76
2021/12/24 10:08:00;;;;;;;47.22;28.83;;;3.00;99.90;;;;;;4955368;29;20106;-78
2021/12/24 10:10:29;;;;;;;50.80;32.05;;;3.10;99.90;;;;;;4954644;29;20640;-77
2021/12/24 10:12:55;;;;;;;50.53;30.40;;;3.10;99.90;;;;;;4970381;28;20500;-78
2021/12/24 10:15:21;;;;;;;49.03;32.17;;;3.10;99.90;;;;;;4955721;28;20148;-77
2021/12/24 10:17:47;;;;;;;;;;;3.10;99.90;;;;;;4954203;29;20065;-78
2021/12/24 10:20:15;;;;;;;50.17;32.10;;;3.10;99.90;;;;;;4969042;28;19906;-78
2021/12/24 10:22:47;;;;;;;53.25;31.27;;;3.10;99.90;;;;;;4954451;29;20026;-77
2021/12/24 10:25:15;;;;;;;51.70;31.70;;;3.20;99.90;;;;;;4954631;29;20059;-78
2021/12/24 10:27:42;;;;;;;49.05;28.30;;;3.30;99.90;;;;;;4970624;28;20039;-78
2021/12/24 10:30:14;;;;;;;45.92;27.83;;;3.40;99.90;;;;;;4953837;29;20039;-77
2021/12/24 10:32:39;;;;;;;49.28;30.02;;;3.40;99.90;;;;;;4953130;28;20245;-77
2021/12/24 10:35:17;;;;;;;;;;;3.50;99.90;;;;;;4970298;28;20502;-77
2021/12/24 10:37:42;;;;;;;49.67;29.95;;;3.50;99.90;;;;;;4955102;29;19918;-78
2021/12/24 10:40:10;;;;;;;;;;;3.50;99.90;;;;;;4955266;28;20043;-79
2021/12/24 10:42:39;;;;;;;44.60;27.67;;;3.50;99.90;;;;;;4973744;29;19906;-81
2021/12/24 10:45:15;;;;;;;47.13;30.52;;;3.50;99.90;;;;;;4973963;28;20027;-79
2021/12/24 10:47:41;;;;;;;95.15;47.63;;;3.50;99.90;;;;;;4967752;28;20031;-77
2021/12/24 10:53:16;;;;;;;131.65;69.40;;;3.40;99.90;;;;;;4961360;29;20043;-78
2021/12/24 10:55:54;;;;;;;88.88;53.63;;;3.50;99.90;;;;;;4953483;29;20051;-77
2021/12/24 10:58:22;;;;;;;65.20;39.05;;;3.50;99.90;;;;;;4955276;28;20039;-78
2021/12/24 11:00:53;;;;;;;52.50;33.30;;;3.50;99.90;;;;;;4954217;28;20031;-78
2021/12/24 11:03:22;;;;;;;58.58;36.50;;;3.50;99.90;;;;;;4953347;29;20038;-77
2021/12/24 11:06:09;;;;;;;56.17;32.42;;;3.50;99.90;;;;;;4952292;28;20511;-78
2021/12/24 11:08:35;;;;;;;53.72;32.90;;;3.60;99.90;;;;;;4952428;29;20031;-78
2021/12/24 11:11:06;;;;;;;51.42;31.60;;;3.50;99.90;;;;;;4951018;28;20062;-77
2021/12/24 11:13:43;;;;;;;59.95;35.08;;;3.60;99.90;;;;;;4953163;29;20046;-78
2021/12/24 11:16:14;;;;;;;63.63;38.08;;;3.60;99.90;;;;;;4951394;28;20101;-77
2021/12/24 11:18:45;;;;;;;60.40;38.55;;;3.50;99.90;;;;;;4951273;29;20105;-77
2021/12/24 11:21:25;;;;;;;64.25;39.50;;;3.50;99.90;;;;;;4952222;28;20031;-77
2021/12/24 11:23:51;;;;;;;64.85;38.53;;;3.50;99.90;;;;;;4953502;28;20043;-77
2021/12/24 11:26:25;;;;;;;74.05;43.25;;;3.40;99.90;;;;;;4956839;29;20102;-77
2021/12/24 11:28:50;;;;;;;66.20;39.75;;;3.30;99.90;;;;;;4958828;29;20031;-78
2021/12/24 11:31:21;;;;;;;;;;;3.30;99.90;;;;;;4957193;29;20030;-78
2021/12/24 11:33:48;;;;;;;52.97;32.15;;;3.30;99.90;;;;;;4970285;28;20001;-78
2021/12/24 11:36:19;;;;;;;54.60;34.25;;;3.40;99.90;;;;;;4957213;29;20035;-78
2021/12/24 11:38:57;;;;;;;62.83;37.22;;;3.40;99.90;;;;;;4973136;28;20040;-78
2021/12/24 11:41:26;;;;;;;56.03;33.63;;;3.30;99.90;;;;;;4957057;28;20496;-78
2021/12/24 11:43:54;;;;;;;51.65;33.45;;;3.30;99.90;;;;;;4973047;28;20027;-78
2021/12/24 11:46:22;;;;;;;51.38;32.28;;;3.40;99.90;;;;;;4976199;28;20035;-78
2021/12/24 11:48:50;;;;;;;45.90;30.73;;;3.40;99.90;;;;;;4960231;28;20023;-78
2021/12/24 11:51:18;;;;;;;43.38;27.90;;;3.40;99.90;;;;;;4959479;29;20031;-78
2021/12/24 11:53:44;;;;;;;46.67;28.60;;;3.50;99.90;;;;;;4960808;28;20039;-78
2021/12/24 11:56:14;;;;;;;45.92;27.00;;;3.60;99.90;;;;;;4959329;28;20035;-78
2021/12/24 11:58:49;;;;;;;41.83;27.30;;;3.80;99.90;;;;;;4961083;28;20043;-78
2021/12/24 12:01:18;;;;;;;41.72;26.50;;;3.80;99.90;;;;;;4976334;28;20084;-78
2021/12/24 12:03:51;;;;;;;41.85;26.13;;;3.90;99.90;;;;;;4961346;28;20479;-78
2021/12/24 12:06:17;;;;;;;38.33;24.58;;;4.00;99.90;;;;;;4961166;29;20030;-78
2021/12/24 12:08:44;;;;;;;35.90;22.98;;;4.00;99.90;;;;;;4957464;29;20039;-78
2021/12/24 12:11:27;;;;;;;36.42;22.63;;;4.20;99.90;;;;;;4974163;28;20035;-78
2021/12/24 12:14:05;;;;;;;37.78;22.77;;;4.30;99.90;;;;;;4956663;29;20039;-78
2021/12/24 12:16:43;;;;;;;37.35;23.65;;;4.40;99.90;;;;;;4958606;28;20492;-79
2021/12/24 12:19:38;;;;;;;81.07;45.47;;;4.40;99.90;;;;;;4956745;29;20033;-78
2021/12/24 12:25:12;;;;;;;283.48;132.20;;;4.50;99.90;;;;;;4958477;29;20046;-78
2021/12/24 12:27:51;;;;;;;158.73;75.63;;;4.60;99.90;;;;;;4958823;29;20059;-77
2021/12/24 12:30:17;;;;;;;113.20;58.28;;;4.50;99.90;;;;;;4955092;29;20404;-78
2021/12/24 12:32:43;;;;;;;;;;;4.60;99.90;;;;;;4958132;28;20027;-78
2021/12/24 12:35:09;;;;;;;46.75;28.40;;;4.60;99.90;;;;;;4955444;28;19941;-77
2021/12/24 12:37:53;;;;;;;45.35;25.45;;;4.60;99.90;;;;;;4954015;29;20043;-77
2021/12/24 12:40:19;;;;;;;37.05;24.58;;;4.70;99.90;;;;;;4955923;28;20035;-77
2021/12/24 12:45:20;;;;;;;37.00;22.35;;;4.80;99.90;;;;;;4955720;28;19910;-78
2021/12/24 12:47:55;;;;;;;40.25;25.20;;;4.80;99.90;;;;;;4954669;29;20042;-78
2021/12/24 12:50:22;;;;;;;41.80;27.67;;;4.90;99.90;;;;;;4954667;28;20360;-77
2021/12/24 12:52:48;;;;;;;49.47;28.67;;;4.90;99.90;;;;;;4954335;28;20035;-78
2021/12/24 12:55:27;;;;;;;;;;;4.90;99.90;;;;;;4971099;28;20073;-76
2021/12/24 12:58:13;;;;;;;43.65;25.52;;;5.00;99.90;;;;;;4970358;28;19974;-77
2021/12/24 13:00:38;;;;;;;41.15;26.08;;;5.00;99.90;;;;;;4954081;28;20078;-79
2021/12/24 13:05:42;;;;;;;44.95;27.88;;;5.10;99.90;;;;;;4964088;29;19997;-77
2021/12/24 13:08:29;;;;;;;81.28;50.10;;;5.10;99.90;;;;;;4951801;28;20032;-77
2021/12/24 13:11:03;;;;;;;67.35;41.67;;;5.10;99.90;;;;;;4953162;29;20054;-77
2021/12/24 13:13:29;;;;;;;60.85;38.20;;;5.10;99.90;;;;;;4951684;28;20098;-78
2021/12/24 13:15:55;;;;;;;51.47;33.72;;;5.10;99.90;;;;;;4952859;29;20081;-77
2021/12/24 13:18:32;;;;;;;;;;;5.10;99.90;;;;;;4953375;29;20038;-78
2021/12/24 13:23:35;;;;;;;48.35;29.70;;;5.10;99.90;;;;;;4953085;29;20050;-77
2021/12/24 13:26:15;;;;;;;43.42;28.38;;;5.10;99.90;;;;;;4952906;29;20031;-77
2021/12/24 13:29:16;;;;;;;61.58;40.97;;;5.10;99.90;;;;;;4953262;29;20027;-77
2021/12/24 13:31:51;;;;;;;62.95;36.35;;;5.10;99.90;;;;;;4983771;28;20031;-79
2021/12/24 13:34:16;;;;;;;143.85;68.03;;;5.20;99.90;;;;;;4968664;29;20055;-79
2021/12/24 13:36:42;;;;;;;;;;;5.20;99.90;;;;;;4971061;29;20031;-79
2021/12/24 13:39:14;;;;;;;116.80;59.53;;;5.20;99.90;;;;;;4966142;29;20661;-79
2021/12/24 13:41:41;;;;;;;104.70;53.70;;;5.10;99.90;;;;;;4963690;29;20034;-78
2021/12/24 13:44:18;;;;;;;59.15;33.65;;;5.10;99.90;;;;;;4961381;28;20352;-79
2021/12/24 13:46:44;;;;;;;85.75;50.22;;;5.10;99.90;;;;;;4960975;29;20034;-79
2021/12/24 13:54:40;;;;;;;58.65;35.85;;;5.20;99.90;;;;;;4964282;28;20086;-78
2021/12/24 13:57:06;;;;;;;54.65;31.50;;;5.10;99.90;;;;;;4961683;28;20630;-79
2021/12/24 13:59:32;;;;;;;42.80;28.60;;;5.20;99.90;;;;;;4959994;29;20038;-78
2021/12/24 14:01:58;;;;;;;;;;;5.20;99.90;;;;;;4961536;29;20023;-78
2021/12/24 14:04:24;;;;;;;41.40;24.42;;;5.20;99.90;;;;;;4964916;29;19933;-78
2021/12/24 14:06:52;;;;;;;43.83;26.67;;;5.20;99.90;;;;;;4959843;28;20038;-79
2021/12/24 14:09:24;;;;;;;47.90;31.45;;;5.20;99.90;;;;;;4963199;28;20045;-79
2021/12/24 14:11:52;;;;;;;59.80;35.65;;;5.20;99.90;;;;;;4974073;28;20039;-78
2021/12/24 14:14:29;;;;;;;56.83;34.42;;;5.10;99.90;;;;;;4957873;29;20023;-79
2021/12/24 14:19:45;;;;;;;53.30;31.40;;;5.10;99.90;;;;;;4960369;29;20030;-78
2021/12/24 14:22:17;;;;;;;67.45;37.40;;;5.10;99.90;;;;;;4959022;28;20605;-78
2021/12/24 14:25:00;;;;;;;92.53;48.47;;;5.10;99.90;;;;;;4959768;29;20055;-78
2021/12/24 14:27:29;;;;;;;116.60;52.05;;;5.10;99.90;;;;;;4963313;29;20034;-79
2021/12/24 14:30:08;;;;;;;122.47;54.92;;;5.20;99.90;;;;;;4964438;29;20042;-78
2021/12/24 14:32:40;;;;;;;91.35;46.38;;;5.10;99.90;;;;;;4966423;29;20092;-79
2021/12/24 14:35:24;;;;;;;53.58;30.48;;;5.10;99.90;;;;;;4964692;29;20024;-78
2021/12/24 14:38:10;;;;;;;50.03;28.63;;;5.00;99.90;;;;;;4963791;28;20035;-79
2021/12/24 14:40:37;;;;;;;43.60;25.60;;;5.10;99.90;;;;;;4966653;29;20550;-78
2021/12/24 14:43:33;;;;;;;45.35;28.50;;;5.10;99.90;;;;;;4980308;28;20027;-79
2021/12/24 14:45:58;;;;;;;59.33;33.47;;;5.10;99.90;;;;;;4978443;28;20415;-79
2021/12/24 14:48:29;;;;;;;;;;;5.10;99.90;;;;;;4965389;28;20027;-79
2021/12/24 14:51:02;;;;;;;62.58;36.35;;;5.10;99.90;;;;;;4981697;28;19918;-79
2021/12/24 14:53:37;;;;;;;72.38;39.95;;;5.10;99.90;;;;;;4966848;29;20043;-78
2021/12/24 14:56:08;;;;;;;71.47;44.58;;;5.10;99.90;;;;;;4981078;28;20058;-79
2021/12/24 14:58:37;;;;;;;62.22;39.45;;;5.20;99.90;;;;;;4964767;29;20164;-79
2021/12/24 15:01:27;;;;;;;41.08;26.95;;;5.20;99.90;;;;;;4964943;28;20019;-79
2021/12/24 15:04:12;;;;;;;41.58;25.90;;;5.30;99.90;;;;;;4966276;28;20039;-78